createdAt,value
2022-08-04T00:00:16.866Z,99.99
2022-08-04T00:01:16.852Z,99.99
2022-08-04T00:02:16.722Z,99.99
2022-08-04T00:03:16.652Z,99.99
2022-08-04T00:04:16.581Z,99.99
2022-08-04T00:05:16.507Z,99.99
2022-08-04T00:06:16.433Z,99.99
2022-08-04T00:07:16.361Z,99.99
2022-08-04T00:08:16.285Z,99.99
2022-08-04T00:09:16.210Z,99.99
2022-08-04T00:10:16.141Z,99.99
2022-08-04T00:11:16.067Z,99.99
2022-08-04T00:12:15.995Z,99.99
2022-08-04T00:13:15.922Z,99.99
2022-08-04T00:14:15.844Z,99.99
2022-08-04T00:15:16.735Z,99.99
2022-08-04T00:16:15.701Z,99.99
2022-08-04T00:17:15.628Z,99.99
2022-08-04T00:18:15.558Z,99.99
2022-08-04T00:19:15.483Z,99.99
2022-08-04T00:20:15.412Z,99.99
2022-08-04T00:21:15.341Z,99.99
2022-08-04T00:22:15.262Z,99.99
2022-08-04T00:23:15.188Z,99.99
2022-08-04T00:24:15.115Z,99.99
2022-08-04T00:25:15.042Z,99.99
2022-08-04T00:26:14.973Z,99.99
2022-08-04T00:27:14.895Z,99.99
2022-08-04T00:28:14.826Z,99.99
2022-08-04T00:29:14.751Z,99.99
2022-08-04T00:30:14.683Z,99.99
2022-08-04T00:31:14.608Z,99.50
2022-08-04T00:32:14.528Z,99.98
2022-08-04T00:33:14.462Z,99.93
2022-08-04T00:34:14.386Z,98.78
2022-08-04T00:35:14.316Z,98.78
2022-08-04T00:36:14.242Z,98.68
2022-08-04T00:37:14.166Z,98.87
2022-08-04T00:38:14.091Z,99.35
2022-08-04T00:39:14.084Z,98.78
2022-08-04T00:40:13.951Z,99.02
2022-08-04T00:41:13.875Z,99.55
2022-08-04T00:42:13.797Z,99.07
2022-08-04T00:43:13.734Z,99.02
2022-08-04T00:44:13.651Z,98.25
2022-08-04T00:45:13.590Z,98.83
2022-08-04T00:46:17.772Z,99.21
2022-08-04T00:47:13.435Z,99.21
2022-08-04T00:48:13.362Z,98.92
2022-08-04T00:49:13.288Z,98.92
2022-08-04T00:50:13.254Z,99.31
2022-08-04T00:51:13.139Z,99.11
2022-08-04T00:52:32.578Z,99.02
2022-08-04T00:53:12.997Z,98.92
2022-08-04T00:54:12.923Z,98.73
2022-08-04T00:55:12.849Z,99.98
2022-08-04T00:56:12.776Z,99.50
2022-08-04T00:57:33.520Z,99.99
2022-08-04T00:58:12.632Z,99.79
2022-08-04T00:59:12.563Z,99.69
2022-08-04T01:00:12.486Z,99.02
2022-08-04T01:01:12.440Z,98.73
2022-08-04T01:02:12.345Z,98.44
2022-08-04T01:03:12.268Z,97.47
2022-08-04T01:04:12.199Z,97.24
2022-08-04T01:05:12.125Z,97.81
2022-08-04T01:06:12.048Z,96.66
2022-08-04T01:07:11.989Z,96.84
2022-08-04T01:08:11.897Z,96.36
2022-08-04T01:09:11.825Z,96.56
2022-08-04T01:10:17.021Z,95.11
2022-08-04T01:11:11.684Z,95.69
2022-08-04T01:12:11.606Z,94.92
2022-08-04T01:13:15.546Z,95.01
2022-08-04T01:14:11.459Z,94.53
2022-08-04T01:15:11.387Z,94.34
2022-08-04T01:16:11.331Z,95.64
2022-08-04T01:17:12.983Z,95.16
2022-08-04T01:18:11.168Z,94.82
2022-08-04T01:19:11.090Z,94.92
2022-08-04T01:20:11.016Z,95.16
2022-08-04T01:21:10.948Z,95.16
2022-08-04T01:22:10.869Z,95.88
2022-08-04T01:23:10.797Z,95.06
2022-08-04T01:24:10.723Z,95.16
2022-08-04T01:25:10.652Z,94.10
2022-08-04T01:26:43.538Z,94.00
2022-08-04T01:27:10.511Z,91.88
2022-08-04T01:28:10.431Z,92.17
2022-08-04T01:29:10.359Z,92.65
2022-08-04T01:30:10.282Z,92.13
2022-08-04T01:31:13.071Z,92.90
2022-08-04T01:32:10.143Z,92.13
2022-08-04T01:33:10.086Z,90.48
2022-08-04T01:34:09.992Z,91.55
2022-08-04T01:35:09.920Z,91.64
2022-08-04T01:36:09.857Z,90.58
2022-08-04T01:37:09.769Z,91.45
2022-08-04T01:38:20.111Z,91.64
2022-08-04T01:39:09.666Z,90.39
2022-08-04T01:40:09.548Z,90.20
2022-08-04T01:41:09.479Z,89.91
2022-08-04T01:42:09.709Z,90.30
2022-08-04T01:43:09.329Z,90.30
2022-08-04T01:44:09.258Z,90.30
2022-08-04T01:45:09.182Z,90.97
2022-08-04T01:46:09.107Z,90.97
2022-08-04T01:47:09.031Z,90.39
2022-08-04T01:48:08.957Z,89.23
2022-08-04T01:49:08.887Z,90.39
2022-08-04T01:50:08.810Z,89.43
2022-08-04T01:51:08.736Z,89.23
2022-08-04T01:52:08.666Z,90.10
2022-08-04T01:53:08.593Z,89.43
2022-08-04T01:54:08.516Z,88.32
2022-08-04T01:55:08.446Z,86.40
2022-08-04T01:56:08.371Z,87.36
2022-08-04T01:57:38.576Z,86.59
2022-08-04T01:58:08.227Z,84.76
2022-08-04T01:59:08.153Z,84.95
2022-08-04T02:00:08.075Z,85.58
2022-08-04T02:01:08.569Z,84.76
2022-08-04T02:02:08.086Z,85.24
2022-08-04T02:03:07.859Z,86.40
2022-08-04T02:04:18.158Z,86.21
2022-08-04T02:05:07.703Z,85.72
2022-08-04T02:06:07.626Z,86.21
2022-08-04T02:07:07.552Z,86.40
2022-08-04T02:08:07.483Z,85.82
2022-08-04T02:09:07.407Z,85.05
2022-08-04T02:10:07.333Z,85.82
2022-08-04T02:11:07.260Z,85.72
2022-08-04T02:12:15.903Z,84.66
2022-08-04T02:13:07.118Z,83.80
2022-08-04T02:14:14.216Z,83.80
2022-08-04T02:16:10.887Z,83.80
2022-08-04T02:17:10.795Z,82.89
2022-08-04T02:19:14.954Z,83.56
2022-08-04T02:20:14.536Z,80.96
2022-08-04T02:21:14.466Z,80.77
2022-08-04T02:22:14.395Z,81.45
2022-08-04T02:23:14.313Z,80.96
2022-08-04T02:24:14.248Z,80.10
2022-08-04T02:25:14.169Z,80.10
2022-08-04T02:26:19.201Z,80.68
2022-08-04T02:27:14.023Z,80.96
2022-08-04T02:28:13.942Z,80.96
2022-08-04T02:29:13.869Z,82.31
2022-08-04T02:30:13.798Z,81.93
2022-08-04T02:31:13.721Z,81.54
2022-08-04T02:32:13.643Z,80.96
2022-08-04T02:33:13.571Z,81.54
2022-08-04T02:34:13.502Z,81.45
2022-08-04T02:35:13.428Z,80.96
2022-08-04T02:36:13.361Z,79.71
2022-08-04T02:37:13.312Z,79.81
2022-08-04T02:38:13.205Z,80.00
2022-08-04T02:39:13.162Z,80.58
2022-08-04T02:40:13.053Z,80.19
2022-08-04T02:41:12.983Z,81.73
2022-08-04T02:42:12.905Z,81.16
2022-08-04T02:43:12.831Z,80.77
2022-08-04T02:44:12.758Z,80.96
2022-08-04T02:45:12.684Z,81.06
2022-08-04T02:46:17.686Z,81.63
2022-08-04T02:47:12.596Z,80.87
2022-08-04T02:48:31.140Z,81.63
2022-08-04T02:49:12.388Z,81.54
2022-08-04T02:50:12.313Z,81.45
2022-08-04T02:51:12.238Z,82.89
2022-08-04T02:52:12.162Z,83.18
2022-08-04T02:53:12.085Z,82.45
2022-08-04T02:54:12.023Z,83.12
2022-08-04T02:55:11.937Z,82.54
2022-08-04T02:56:11.864Z,83.31
2022-08-04T02:57:11.792Z,83.08
2022-08-04T02:58:11.717Z,82.93
2022-08-04T02:59:11.643Z,83.22
2022-08-04T03:00:11.568Z,83.22
2022-08-04T03:01:11.532Z,82.64
2022-08-04T03:02:11.420Z,83.61
2022-08-04T03:03:12.876Z,83.80
2022-08-04T03:04:11.271Z,84.86
2022-08-04T03:05:11.202Z,85.05
2022-08-04T03:06:11.125Z,85.05
2022-08-04T03:07:14.511Z,85.34
2022-08-04T03:08:10.976Z,85.82
2022-08-04T03:09:10.903Z,84.56
2022-08-04T03:10:10.826Z,84.76
2022-08-04T03:11:10.756Z,83.99
2022-08-04T03:12:10.680Z,84.18
2022-08-04T03:13:10.601Z,83.80
2022-08-04T03:14:10.641Z,83.51
2022-08-04T03:15:10.460Z,85.34
2022-08-04T03:16:10.382Z,84.91
2022-08-04T03:17:10.309Z,83.75
2022-08-04T03:18:10.231Z,83.37
2022-08-04T03:19:10.166Z,83.75
2022-08-04T03:20:10.082Z,83.28
2022-08-04T03:21:10.016Z,83.08
2022-08-04T03:22:09.936Z,84.05
2022-08-04T03:23:14.002Z,83.95
2022-08-04T03:24:09.786Z,83.85
2022-08-04T03:25:09.716Z,84.14
2022-08-04T03:26:09.641Z,83.75
2022-08-04T03:27:09.564Z,83.66
2022-08-04T03:28:09.491Z,82.60
2022-08-04T03:29:09.419Z,82.60
2022-08-04T03:30:09.345Z,82.50
2022-08-04T03:31:09.269Z,82.41
2022-08-04T03:32:09.194Z,83.08
2022-08-04T03:33:09.117Z,82.79
2022-08-04T03:34:09.048Z,83.28
2022-08-04T03:35:08.968Z,83.28
2022-08-04T03:36:08.895Z,84.33
2022-08-04T03:37:08.821Z,83.37
2022-08-04T03:38:08.746Z,82.89
2022-08-04T03:39:08.694Z,82.89
2022-08-04T03:40:08.962Z,83.85
2022-08-04T03:41:08.526Z,83.66
2022-08-04T03:42:08.491Z,83.47
2022-08-04T03:43:08.376Z,83.08
2022-08-04T03:44:08.300Z,82.70
2022-08-04T03:45:23.252Z,83.37
2022-08-04T03:46:08.155Z,84.53
2022-08-04T03:47:08.141Z,84.91
2022-08-04T03:48:08.009Z,85.58
2022-08-04T03:49:07.932Z,85.30
2022-08-04T03:50:07.857Z,84.91
2022-08-04T03:51:07.778Z,85.87
2022-08-04T03:52:07.703Z,83.75
2022-08-04T03:53:07.630Z,84.14
2022-08-04T03:54:07.554Z,83.95
2022-08-04T03:55:07.482Z,83.37
2022-08-04T03:56:07.409Z,83.47
2022-08-04T03:57:07.331Z,84.81
2022-08-04T03:58:07.255Z,84.81
2022-08-04T03:59:07.187Z,84.72
2022-08-04T04:00:07.111Z,84.72
2022-08-04T04:01:07.041Z,84.91
2022-08-04T04:02:07.149Z,83.95
2022-08-04T04:03:06.886Z,83.56
2022-08-04T04:04:06.817Z,83.75
2022-08-04T04:05:06.735Z,83.95
2022-08-04T04:06:06.667Z,82.56
2022-08-04T04:07:06.587Z,83.42
2022-08-04T04:08:08.657Z,83.42
2022-08-04T04:09:06.440Z,83.42
2022-08-04T04:10:07.470Z,83.62
2022-08-04T04:11:06.296Z,83.23
2022-08-04T04:12:06.213Z,82.85
2022-08-04T04:13:06.214Z,83.33
2022-08-04T04:14:06.066Z,82.75
2022-08-04T04:15:05.990Z,83.04
2022-08-04T04:16:05.922Z,82.85
2022-08-04T04:17:05.846Z,83.42
2022-08-04T04:18:05.768Z,82.46
2022-08-04T04:19:05.696Z,83.62
2022-08-04T04:20:05.617Z,82.94
2022-08-04T04:21:05.545Z,82.75
2022-08-04T04:22:05.468Z,82.65
2022-08-04T04:23:05.401Z,82.65
2022-08-04T04:24:05.326Z,82.75
2022-08-04T04:25:05.246Z,82.75
2022-08-04T04:26:05.172Z,83.14
2022-08-04T04:27:05.102Z,83.14
2022-08-04T04:28:44.890Z,83.81
2022-08-04T04:29:04.949Z,83.72
2022-08-04T04:30:04.877Z,83.23
2022-08-04T04:31:04.803Z,83.72
2022-08-04T04:32:04.732Z,83.33
2022-08-04T04:33:04.653Z,83.62
2022-08-04T04:34:04.575Z,82.85
2022-08-04T04:35:04.500Z,83.91
2022-08-04T04:36:04.431Z,83.14
2022-08-04T04:37:04.350Z,83.04
2022-08-04T04:38:04.276Z,83.04
2022-08-04T04:39:04.276Z,83.18
2022-08-04T04:40:04.167Z,83.08
2022-08-04T04:41:04.055Z,83.33
2022-08-04T04:42:03.982Z,84.23
2022-08-04T04:43:03.904Z,83.85
2022-08-04T04:44:03.834Z,83.85
2022-08-04T04:45:03.757Z,84.23
2022-08-04T04:46:03.685Z,84.23
2022-08-04T04:47:03.611Z,84.43
2022-08-04T04:48:09.047Z,84.33
2022-08-04T04:49:03.465Z,84.81
2022-08-04T04:50:03.384Z,84.23
2022-08-04T04:51:03.312Z,84.53
2022-08-04T04:52:03.238Z,84.91
2022-08-04T04:53:03.165Z,85.87
2022-08-04T04:54:03.090Z,85.78
2022-08-04T04:55:03.012Z,86.45
2022-08-04T04:56:02.936Z,87.26
2022-08-04T04:57:02.867Z,87.17
2022-08-04T04:58:02.793Z,87.94
2022-08-04T04:59:02.723Z,88.81
2022-08-04T05:00:02.637Z,88.32
2022-08-04T05:01:02.565Z,88.81
2022-08-04T05:02:02.498Z,87.84
2022-08-04T05:03:07.283Z,88.13
2022-08-04T05:04:02.344Z,88.13
2022-08-04T05:05:02.265Z,88.32
2022-08-04T05:06:02.195Z,88.23
2022-08-04T05:07:02.118Z,88.42
2022-08-04T05:08:02.048Z,88.90
2022-08-04T05:09:01.974Z,88.23
2022-08-04T05:10:01.896Z,88.90
2022-08-04T05:11:01.834Z,89.48
2022-08-04T05:12:02.481Z,89.09
2022-08-04T05:14:36.573Z,88.90
2022-08-04T05:14:38.595Z,88.71
2022-08-04T05:15:01.530Z,87.36
2022-08-04T05:16:01.457Z,88.90
2022-08-04T05:17:01.380Z,89.14
2022-08-04T05:18:01.303Z,89.33
2022-08-04T05:19:01.229Z,88.95
2022-08-04T05:20:01.226Z,88.75
2022-08-04T05:21:01.081Z,88.37
2022-08-04T05:22:01.003Z,89.33
2022-08-04T05:23:00.934Z,88.85
2022-08-04T05:24:00.858Z,89.43
2022-08-04T05:25:00.798Z,90.10
2022-08-04T05:26:00.877Z,92.03
2022-08-04T05:27:00.635Z,91.06
2022-08-04T05:28:00.568Z,91.45
2022-08-04T05:29:00.484Z,91.55
2022-08-04T05:30:00.420Z,91.74
2022-08-04T05:31:00.338Z,92.13
2022-08-04T05:32:00.270Z,92.51
2022-08-04T05:33:00.314Z,91.55
2022-08-04T05:34:00.118Z,91.36
2022-08-04T05:35:00.037Z,91.93
2022-08-04T05:36:20.647Z,92.32
2022-08-04T05:36:59.891Z,92.32
2022-08-04T05:38:01.126Z,92.51
2022-08-04T05:38:59.998Z,92.51
2022-08-04T05:39:59.670Z,93.09
2022-08-04T05:40:59.621Z,92.80
2022-08-04T05:42:04.319Z,92.32
2022-08-04T05:42:59.464Z,92.17
2022-08-04T05:43:59.375Z,90.44
2022-08-04T05:44:59.302Z,91.30
2022-08-04T05:45:59.227Z,93.04
2022-08-04T05:46:59.152Z,92.08
2022-08-04T05:47:59.079Z,92.36
2022-08-04T05:48:59.003Z,91.98
2022-08-04T05:50:02.101Z,92.75
2022-08-04T05:51:01.024Z,93.43
2022-08-04T05:51:58.785Z,93.43
2022-08-04T05:53:01.461Z,92.94
2022-08-04T05:53:58.632Z,93.13
2022-08-04T05:54:58.558Z,93.47
2022-08-04T05:55:59.953Z,92.41
2022-08-04T05:56:58.410Z,91.54
2022-08-04T05:57:58.340Z,93.37
2022-08-04T05:58:58.265Z,93.57
2022-08-04T05:59:58.193Z,94.24
2022-08-04T06:00:58.121Z,94.53
2022-08-04T06:01:58.332Z,93.18
2022-08-04T06:02:57.967Z,93.57
2022-08-04T06:03:57.894Z,94.38
2022-08-04T06:04:57.822Z,95.83
2022-08-04T06:05:57.752Z,95.64
2022-08-04T06:06:57.674Z,96.41
2022-08-04T06:08:12.542Z,98.25
2022-08-04T06:08:57.529Z,97.57
2022-08-04T06:09:57.457Z,96.22
2022-08-04T06:10:57.381Z,96.51
2022-08-04T06:12:03.350Z,96.99
2022-08-04T06:12:57.318Z,95.06
2022-08-04T06:13:57.161Z,94.58
2022-08-04T06:14:59.402Z,93.71
2022-08-04T06:15:57.013Z,94.48
2022-08-04T06:16:56.939Z,94.58
2022-08-04T06:19:56.400Z,93.04
2022-08-04T06:20:01.259Z,92.50
2022-08-04T06:20:19.985Z,92.98
2022-08-04T06:20:56.640Z,93.66
2022-08-04T06:21:56.575Z,93.08
2022-08-04T06:22:56.492Z,94.14
2022-08-04T06:24:02.362Z,93.56
2022-08-04T06:24:56.347Z,92.50
2022-08-04T06:25:56.275Z,93.56
2022-08-04T06:26:56.199Z,94.96
2022-08-04T06:27:56.126Z,95.15
2022-08-04T06:28:56.056Z,93.80
2022-08-04T06:29:55.981Z,95.06
2022-08-04T06:30:55.912Z,96.89
2022-08-04T06:32:30.375Z,96.12
2022-08-04T06:33:04.180Z,96.22
2022-08-04T06:33:55.683Z,96.70
2022-08-04T06:34:55.648Z,95.25
2022-08-04T06:35:55.545Z,96.03
2022-08-04T06:36:55.470Z,96.03
2022-08-04T06:38:00.425Z,94.96
2022-08-04T06:38:58.726Z,96.70
2022-08-04T06:39:55.245Z,96.22
2022-08-04T06:40:55.179Z,98.10
2022-08-04T06:42:22.196Z,97.91
2022-08-04T06:42:55.027Z,98.49
2022-08-04T06:43:54.951Z,96.46
2022-08-04T06:44:54.882Z,97.91
2022-08-04T06:45:54.811Z,98.49
2022-08-04T06:46:54.735Z,98.10
2022-08-04T06:47:54.667Z,98.20
2022-08-04T06:48:54.589Z,98.10
2022-08-04T06:51:25.112Z,99.16
2022-08-04T06:51:29.426Z,97.23
2022-08-04T06:51:54.368Z,97.62
2022-08-04T06:52:54.299Z,99.99
2022-08-04T06:53:54.227Z,99.51
2022-08-04T06:54:54.152Z,99.21
2022-08-04T06:55:54.076Z,99.51
2022-08-04T06:56:54.001Z,99.79
2022-08-04T06:57:53.932Z,98.83
2022-08-04T06:58:53.863Z,98.93
2022-08-04T06:59:53.788Z,98.44
2022-08-04T07:00:53.717Z,99.21
2022-08-04T07:01:53.698Z,99.11
2022-08-04T07:02:53.568Z,98.63
2022-08-04T07:03:53.495Z,98.83
2022-08-04T07:04:53.421Z,98.88
2022-08-04T07:05:53.352Z,98.97
2022-08-04T07:06:53.272Z,98.10
2022-08-04T07:07:58.023Z,98.00
2022-08-04T07:08:53.130Z,97.91
2022-08-04T07:09:53.060Z,97.23
2022-08-04T07:10:52.980Z,98.88
2022-08-04T07:11:52.907Z,96.84
2022-08-04T07:12:52.958Z,96.65
2022-08-04T07:13:52.763Z,95.78
2022-08-04T07:14:52.693Z,95.01
2022-08-04T07:15:52.622Z,95.44
2022-08-04T07:16:52.547Z,93.99
2022-08-04T07:17:52.646Z,94.47
2022-08-04T07:18:52.411Z,93.41
2022-08-04T07:19:52.325Z,92.63
2022-08-04T07:20:52.256Z,91.18
2022-08-04T07:22:24.418Z,92.05
2022-08-04T07:22:52.112Z,93.60
2022-08-04T07:23:52.039Z,91.38
2022-08-04T07:24:51.970Z,90.80
2022-08-04T07:26:12.030Z,87.45
2022-08-04T07:26:51.822Z,87.45
2022-08-04T07:27:51.745Z,85.90
2022-08-04T07:28:51.674Z,89.09
2022-08-04T07:29:51.598Z,87.26
2022-08-04T07:30:51.529Z,87.06
2022-08-04T07:31:51.455Z,83.67
2022-08-04T07:32:51.383Z,80.96
2022-08-04T07:34:17.742Z,81.05
2022-08-04T07:34:51.242Z,79.22
2022-08-04T07:36:04.693Z,78.19
2022-08-04T07:36:52.771Z,75.48
2022-08-04T07:37:51.021Z,75.38
2022-08-04T07:38:51.769Z,76.25
2022-08-04T07:39:50.952Z,75.28
2022-08-04T07:40:50.807Z,73.35
2022-08-04T07:41:50.729Z,71.80
2022-08-04T07:42:50.661Z,72.71
2022-08-04T07:43:50.592Z,71.25
2022-08-04T07:44:50.519Z,72.02
2022-08-04T07:45:50.443Z,70.86
2022-08-04T07:46:50.370Z,70.18
2022-08-04T07:48:05.285Z,70.76
2022-08-04T07:48:50.225Z,70.47
2022-08-04T07:49:55.002Z,70.18
2022-08-04T07:50:50.085Z,70.80
2022-08-04T07:51:50.010Z,69.73
2022-08-04T07:53:09.043Z,69.83
2022-08-04T07:53:55.558Z,68.86
2022-08-04T07:54:49.795Z,68.57
2022-08-04T07:55:49.726Z,69.15
2022-08-04T07:56:49.648Z,69.44
2022-08-04T07:57:49.581Z,68.86
2022-08-04T07:58:49.837Z,66.86
2022-08-04T07:59:50.380Z,66.95
2022-08-04T08:00:49.361Z,65.40
2022-08-04T08:01:49.290Z,65.01
2022-08-04T08:02:49.222Z,64.72
2022-08-04T08:03:49.241Z,65.01
2022-08-04T08:04:49.075Z,64.72
2022-08-04T08:05:54.541Z,65.33
2022-08-04T08:06:48.944Z,64.75
2022-08-04T08:07:50.614Z,64.85
2022-08-04T08:08:48.785Z,64.75
2022-08-04T08:09:48.722Z,64.07
2022-08-04T08:10:48.644Z,64.17
2022-08-04T08:12:36.466Z,64.85
2022-08-04T08:12:51.569Z,64.85
2022-08-04T08:13:48.433Z,64.95
2022-08-04T08:14:55.538Z,65.63
2022-08-04T08:16:52.232Z,64.11
2022-08-04T08:17:58.286Z,64.69
2022-08-04T08:19:56.022Z,65.08
2022-08-04T08:20:55.948Z,64.69
2022-08-04T08:21:59.809Z,63.91
2022-08-04T08:22:55.801Z,63.62
2022-08-04T08:23:55.726Z,63.91
2022-08-04T08:24:55.660Z,63.23
2022-08-04T08:25:55.590Z,63.23
2022-08-04T08:26:55.512Z,63.04
2022-08-04T08:27:56.125Z,63.42
2022-08-04T08:28:55.369Z,62.97
2022-08-04T08:29:55.296Z,63.17
2022-08-04T08:30:55.225Z,63.07
2022-08-04T08:31:58.419Z,63.65
2022-08-04T08:32:55.086Z,62.97
2022-08-04T08:33:55.012Z,63.17
2022-08-04T08:34:54.943Z,62.68
2022-08-04T08:35:55.101Z,63.26
2022-08-04T08:36:54.796Z,62.58
2022-08-04T08:37:54.736Z,61.51
2022-08-04T08:38:54.696Z,63.07
2022-08-04T08:39:54.590Z,62.77
2022-08-04T08:40:54.511Z,62.77
2022-08-04T08:41:54.439Z,63.78
2022-08-04T08:42:54.377Z,63.65
2022-08-04T08:44:06.476Z,63.59
2022-08-04T08:44:57.772Z,62.81
2022-08-04T08:45:54.156Z,62.71
2022-08-04T08:46:54.089Z,62.51
2022-08-04T08:48:04.782Z,62.61
2022-08-04T08:48:53.943Z,63.59
2022-08-04T08:50:01.921Z,63.00
2022-08-04T08:50:53.811Z,62.81
2022-08-04T08:51:53.735Z,63.42
2022-08-04T08:53:01.426Z,62.84
2022-08-04T08:53:53.587Z,61.87
2022-08-04T08:54:53.521Z,61.57
2022-08-04T08:55:53.447Z,61.77
2022-08-04T08:56:53.380Z,62.45
2022-08-04T08:58:00.185Z,61.77
2022-08-04T08:58:53.232Z,61.67
2022-08-04T08:59:53.164Z,62.16
2022-08-04T09:00:53.092Z,62.45
2022-08-04T09:01:53.124Z,61.57
2022-08-04T09:03:04.391Z,62.06
2022-08-04T09:03:52.877Z,62.06
2022-08-04T09:04:52.811Z,62.29
2022-08-04T09:05:52.740Z,61.51
2022-08-04T09:06:52.669Z,61.31
2022-08-04T09:07:52.590Z,61.90
2022-08-04T09:08:52.528Z,62.67
2022-08-04T09:09:52.452Z,61.31
2022-08-04T09:10:52.379Z,60.82
2022-08-04T09:11:52.311Z,60.63
2022-08-04T09:12:52.242Z,60.24
2022-08-04T09:13:52.174Z,60.24
2022-08-04T09:14:52.103Z,60.14
2022-08-04T09:15:54.283Z,59.69
2022-08-04T09:16:51.963Z,59.69
2022-08-04T09:17:51.886Z,60.08
2022-08-04T09:18:51.816Z,60.36
2022-08-04T09:19:51.740Z,59.39
2022-08-04T09:20:51.671Z,60.66
2022-08-04T09:21:51.606Z,60.36
2022-08-04T09:22:51.536Z,59.59
2022-08-04T09:23:51.461Z,59.20
2022-08-04T09:24:51.388Z,60.27
2022-08-04T09:25:51.316Z,59.69
2022-08-04T09:26:51.248Z,62.02
2022-08-04T09:27:51.181Z,61.76
2022-08-04T09:28:54.028Z,59.91
2022-08-04T09:29:51.036Z,59.52
2022-08-04T09:30:50.964Z,59.81
2022-08-04T09:32:06.105Z,58.64
2022-08-04T09:32:50.829Z,59.13
2022-08-04T09:33:50.761Z,59.03
2022-08-04T09:35:03.428Z,59.33
2022-08-04T09:35:50.618Z,59.13
2022-08-04T09:36:50.556Z,58.25
2022-08-04T09:37:50.475Z,58.06
2022-08-04T09:38:52.509Z,58.54
2022-08-04T09:39:51.990Z,58.06
2022-08-04T09:40:53.054Z,56.79
2022-08-04T09:41:52.557Z,57.01
2022-08-04T09:42:50.123Z,57.40
2022-08-04T09:43:59.063Z,57.99
2022-08-04T09:44:56.230Z,58.48
2022-08-04T09:45:50.566Z,58.18
2022-08-04T09:46:49.840Z,58.48
2022-08-04T09:47:49.773Z,56.92
2022-08-04T09:48:49.699Z,58.09
2022-08-04T09:49:49.628Z,57.11
2022-08-04T09:50:50.640Z,56.33
2022-08-04T09:51:58.695Z,56.33
2022-08-04T09:52:49.421Z,56.65
2022-08-04T09:53:49.346Z,55.48
2022-08-04T09:54:49.277Z,55.68
2022-08-04T09:55:54.368Z,56.46
2022-08-04T09:56:49.140Z,57.34
2022-08-04T09:57:49.062Z,57.73
2022-08-04T09:58:48.996Z,57.14
2022-08-04T09:59:48.927Z,56.46
2022-08-04T10:00:48.855Z,55.38
2022-08-04T10:01:48.795Z,55.22
2022-08-04T10:02:48.765Z,55.12
2022-08-04T10:03:48.647Z,56.00
2022-08-04T10:04:48.580Z,55.22
2022-08-04T10:05:48.509Z,54.93
2022-08-04T10:06:48.434Z,54.73
2022-08-04T10:07:59.509Z,54.05
2022-08-04T10:08:48.298Z,53.56
2022-08-04T10:09:48.225Z,55.02
2022-08-04T10:10:48.155Z,55.32
2022-08-04T10:11:56.134Z,54.63
2022-08-04T10:12:48.025Z,54.44
2022-08-04T10:13:47.944Z,52.87
2022-08-04T10:14:47.881Z,52.68
2022-08-04T10:15:47.816Z,52.70
2022-08-04T10:16:47.740Z,51.90
2022-08-04T10:17:51.818Z,52.22
2022-08-04T10:18:47.599Z,52.70
2022-08-04T10:19:47.529Z,52.31
2022-08-04T10:20:52.919Z,53.66
2022-08-04T10:21:59.139Z,53.09
2022-08-04T10:23:09.312Z,52.51
2022-08-04T10:23:56.274Z,51.73
2022-08-04T10:24:47.198Z,50.56
2022-08-04T10:26:05.738Z,50.75
2022-08-04T10:26:47.043Z,49.90
2022-08-04T10:27:46.970Z,51.27
2022-08-04T10:28:46.901Z,50.46
2022-08-04T10:29:46.831Z,50.98
2022-08-04T10:30:46.758Z,51.37
2022-08-04T10:31:46.698Z,49.51
2022-08-04T10:32:46.620Z,49.32
2022-08-04T10:33:46.552Z,50.39
2022-08-04T10:34:46.485Z,50.00
2022-08-04T10:35:46.418Z,48.14
2022-08-04T10:36:46.341Z,47.95
2022-08-04T10:37:59.902Z,48.85
2022-08-04T10:38:46.203Z,49.73
2022-08-04T10:39:46.212Z,49.53
2022-08-04T10:40:46.090Z,50.51
2022-08-04T10:41:45.996Z,50.42
2022-08-04T10:42:45.925Z,50.51
2022-08-04T10:43:45.857Z,50.51
2022-08-04T10:44:45.787Z,48.55
2022-08-04T10:45:45.718Z,48.28
2022-08-04T10:46:45.645Z,48.09
2022-08-04T10:47:45.577Z,47.80
2022-08-04T10:48:45.509Z,46.72
2022-08-04T10:49:45.440Z,47.70
2022-08-04T10:50:45.370Z,47.02
2022-08-04T10:51:58.607Z,46.43
2022-08-04T10:52:45.233Z,45.28
2022-08-04T10:53:45.162Z,45.08
2022-08-04T10:54:45.095Z,45.16
2022-08-04T10:56:07.110Z,46.45
2022-08-04T10:56:44.955Z,46.82
2022-08-04T10:57:44.885Z,46.84
2022-08-04T10:58:47.946Z,46.94
2022-08-04T10:59:44.751Z,46.84
2022-08-04T11:00:44.676Z,46.94
2022-08-04T11:01:50.834Z,47.82
2022-08-04T11:02:44.577Z,49.58
2022-08-04T11:03:44.475Z,47.72
2022-08-04T11:04:44.407Z,46.75
2022-08-04T11:05:44.738Z,46.45
2022-08-04T11:06:44.266Z,46.94
2022-08-04T11:07:44.205Z,46.36
2022-08-04T11:08:44.135Z,46.45
2022-08-04T11:09:44.055Z,45.79
2022-08-04T11:10:43.988Z,45.50
2022-08-04T11:11:57.105Z,44.91
2022-08-04T11:12:43.849Z,44.91
2022-08-04T11:13:46.952Z,47.94
2022-08-04T11:14:43.707Z,46.97
2022-08-04T11:15:43.648Z,45.98
2022-08-04T11:16:43.571Z,44.83
2022-08-04T11:17:43.506Z,42.95
2022-08-04T11:18:43.436Z,43.54
2022-08-04T11:19:46.334Z,45.13
2022-08-04T11:20:43.297Z,45.13
2022-08-04T11:21:43.225Z,45.42
2022-08-04T11:22:43.162Z,45.03
2022-08-04T11:23:43.090Z,45.25
2022-08-04T11:24:43.028Z,46.91
2022-08-04T11:25:42.949Z,46.81
2022-08-04T11:26:42.918Z,46.42
2022-08-04T11:27:42.818Z,45.15
2022-08-04T11:28:42.749Z,45.54
2022-08-04T11:29:42.693Z,45.25
2022-08-04T11:30:42.609Z,44.37
2022-08-04T11:31:42.548Z,45.93
2022-08-04T11:32:42.490Z,45.76
2022-08-04T11:33:42.460Z,45.07
2022-08-04T11:34:42.338Z,45.95
2022-08-04T11:35:42.269Z,44.78
2022-08-04T11:36:42.196Z,44.88
2022-08-04T11:37:42.134Z,45.27
2022-08-04T11:38:42.066Z,44.38
2022-08-04T11:39:42.037Z,44.27
2022-08-04T11:40:41.924Z,44.58
2022-08-04T11:41:41.858Z,44.68
2022-08-04T11:42:41.790Z,44.09
2022-08-04T11:44:00.934Z,45.47
2022-08-04T11:44:41.654Z,45.76
2022-08-04T11:45:41.584Z,43.60
2022-08-04T11:46:41.512Z,43.70
2022-08-04T11:47:41.459Z,43.70
2022-08-04T11:48:41.379Z,44.41
2022-08-04T11:49:57.494Z,43.52
2022-08-04T11:50:41.239Z,43.52
2022-08-04T11:51:41.167Z,42.84
2022-08-04T11:52:41.119Z,43.82
2022-08-04T11:53:41.034Z,45.09
2022-08-04T11:54:40.967Z,44.23
2022-08-04T11:56:07.779Z,41.98
2022-08-04T11:56:40.834Z,43.45
2022-08-04T11:57:40.762Z,44.33
2022-08-04T11:58:40.701Z,43.26
2022-08-04T11:59:40.627Z,43.45
2022-08-04T12:00:40.559Z,42.58
2022-08-04T12:01:40.489Z,44.45
2022-08-04T12:02:40.517Z,43.47
2022-08-04T12:03:40.356Z,42.68
2022-08-04T12:04:40.287Z,41.21
2022-08-04T12:05:40.213Z,42.10
2022-08-04T12:06:40.164Z,43.47
2022-08-04T12:07:41.762Z,43.37
2022-08-04T12:08:40.017Z,42.79
2022-08-04T12:09:39.944Z,41.90
2022-08-04T12:10:41.997Z,41.71
2022-08-04T12:11:39.807Z,40.23
2022-08-04T12:12:39.740Z,42.39
2022-08-04T12:13:39.670Z,42.58
2022-08-04T12:14:39.610Z,41.80
2022-08-04T12:15:39.532Z,43.37
2022-08-04T12:16:39.472Z,43.57
2022-08-04T12:17:52.444Z,41.90
2022-08-04T12:18:39.333Z,42.49
2022-08-04T12:20:03.386Z,42.02
2022-08-04T12:20:41.194Z,42.10
2022-08-04T12:21:39.129Z,41.03
2022-08-04T12:22:41.052Z,40.94
2022-08-04T12:23:39.000Z,42.41
2022-08-04T12:24:38.933Z,44.87
2022-08-04T12:25:41.981Z,41.16
2022-08-04T12:26:38.791Z,40.08
2022-08-04T12:27:38.730Z,39.29
2022-08-04T12:29:08.090Z,39.01
2022-08-04T12:29:38.589Z,39.80
2022-08-04T12:30:58.558Z,40.58
2022-08-04T12:31:38.452Z,40.88
2022-08-04T12:32:38.387Z,41.77
2022-08-04T12:33:41.234Z,40.21
2022-08-04T12:34:38.254Z,40.01
2022-08-04T12:35:38.187Z,41.09
2022-08-04T12:36:38.114Z,41.78
2022-08-04T12:37:38.052Z,39.92
2022-08-04T12:38:37.979Z,38.95
2022-08-04T12:40:27.828Z,40.63
2022-08-04T12:40:37.922Z,43.01
2022-08-04T12:41:37.777Z,39.47
2022-08-04T12:42:37.714Z,39.86
2022-08-04T12:43:37.653Z,39.28
2022-08-04T12:44:39.053Z,38.99
2022-08-04T12:45:37.510Z,41.35
2022-08-04T12:46:37.442Z,42.46
2022-08-04T12:47:37.405Z,39.32
2022-08-04T12:48:37.316Z,38.04
2022-08-04T12:49:37.241Z,38.16
2022-08-04T12:50:37.179Z,37.98
2022-08-04T12:52:08.495Z,40.15
2022-08-04T12:53:00.469Z,38.00
2022-08-04T12:53:51.131Z,39.52
2022-08-04T12:54:36.909Z,38.37
2022-08-04T12:55:36.844Z,35.83